Aviation Digital Data Service (ADDS)

Output produced by METARs form (1005 UTC 07 December 2022)
found at http://www.aviationweather.gov/metar/data/
 
LHPP 070945Z AUTO 06006KT CAVOK 05/02 Q1015
LHPP 070915Z AUTO 05006KT CAVOK 05/02 Q1015
LHPP 070845Z AUTO 05005KT CAVOK 04/02 Q1015
LHPP 070815Z AUTO 03005KT CAVOK 02/01 Q1015
LHPP 070745Z AUTO 06003KT 040V100 6000 NCD 00/M00 Q1015
LHPP 070715Z AUTO 00000KT 7000 NCD 01/00 Q1015
LHPP 070645Z AUTO 06005KT CAVOK 02/01 Q1015
LHPP 070615Z AUTO 07005KT CAVOK 02/01 Q1015
LHPP 070545Z AUTO 05006KT CAVOK 02/01 Q1014
LHPP 070515Z AUTO 02005KT 9000 NSC M00/M00 Q1015
LHPP 070445Z AUTO VRB03KT 5000 BR NCD M00/M00 Q1014
LHPP 070415Z AUTO 04003KT CAVOK 02/01 Q1014
TAF LHPP 070815Z 0709/0718 VRB03KT CAVOK 
     BECMG 0715/0718 5000 BR